Time;durP1;ratioP1;P1;durP2;ratioP2;P2;SDS_P1;SDS_P2;PMS_P1;PMS_P2;Temp;Humidity;BMP_temperature;BMP_pressure;BME280_temperature;BME280_humidity;BME280_pressure;Samples;Min_cycle;Max_cycle;Signal;HPM_P1;HPM_P2
2023/03/16 00:00:15;;;;;;;5.00;2.40;;;;;;;5.47;50.40;100149.34;5011234;28;20078;-79
2023/03/16 00:02:44;;;;;;;5.45;2.80;;;;;;;5.48;49.87;100156.28;5011373;28;20080;-78
2023/03/16 00:05:12;;;;;;;7.15;2.63;;;;;;;5.51;50.08;100147.50;5011170;28;20145;-78
2023/03/16 00:07:40;;;;;;;7.03;2.75;;;;;;;5.54;50.57;100155.25;5011016;28;20068;-79
2023/03/16 00:10:11;;;;;;;7.10;3.22;;;;;;;5.55;50.66;100154.34;5011292;28;20482;-80
2023/03/16 00:12:38;;;;;;;5.55;2.90;;;;;;;5.61;51.05;100148.94;5011694;28;20460;-79
2023/03/16 00:15:05;;;;;;;6.40;2.75;;;;;;;5.67;51.00;100147.03;5010820;28;20474;-79
2023/03/16 00:17:33;;;;;;;7.63;2.88;;;;;;;5.71;51.11;100140.81;5010723;28;20201;-79
2023/03/16 00:20:05;;;;;;;4.55;2.63;;;;;;;5.77;51.31;100145.88;5011058;28;20049;-78
2023/03/16 00:22:32;;;;;;;5.63;2.60;;;;;;;5.81;51.34;100139.66;5011223;28;20087;-79
2023/03/16 00:25:00;;;;;;;8.70;2.75;;;;;;;5.86;51.35;100140.34;5010495;28;20136;-78
2023/03/16 00:27:28;;;;;;;7.43;2.80;;;;;;;5.91;51.30;100141.97;5010893;28;20068;-79
2023/03/16 00:29:54;;;;;;;7.00;2.60;;;;;;;5.94;51.54;100134.03;5009829;28;20156;-78
2023/03/16 00:32:28;;;;;;;5.15;2.70;;;;;;;5.96;50.98;100132.22;5010960;28;20108;-79
2023/03/16 00:34:55;;;;;;;9.15;2.92;;;;;;;6.02;51.67;100129.41;5010470;28;20554;-79
2023/03/16 00:37:23;;;;;;;6.25;2.70;;;;;;;6.04;51.41;100132.88;5010395;28;20502;-79
2023/03/16 00:39:50;;;;;;;4.50;2.13;;;;;;;6.06;51.48;100124.97;5010725;28;20589;-79
2023/03/16 00:42:18;;;;;;;7.43;2.25;;;;;;;6.06;51.73;100117.97;5010890;28;20148;-79
2023/03/16 00:44:45;;;;;;;5.07;2.83;;;;;;;6.08;51.40;100123.16;5010586;28;20053;-78
2023/03/16 00:47:15;;;;;;;5.60;2.47;;;;;;;6.08;51.54;100117.94;5010272;28;20506;-79
2023/03/16 00:49:43;;;;;;;5.00;3.15;;;;;;;6.08;51.48;100107.47;5010560;28;20054;-79
2023/03/16 00:52:14;;;;;;;6.10;3.25;;;;;;;6.08;51.43;100110.09;5010606;28;20097;-79
2023/03/16 00:54:43;;;;;;;4.25;2.70;;;;;;;6.09;51.57;100120.50;5010654;28;20392;-80
2023/03/16 00:57:12;;;;;;;6.70;2.70;;;;;;;6.08;51.71;100113.56;5010270;28;20451;-79
2023/03/16 00:59:39;;;;;;;6.00;2.85;;;;;;;6.09;51.76;100114.44;5010547;28;20062;-79
2023/03/16 01:02:08;;;;;;;5.72;2.90;;;;;;;6.09;51.63;100120.50;5010549;28;20057;-80
2023/03/16 01:04:35;;;;;;;7.32;2.83;;;;;;;6.10;51.53;100118.75;5010359;28;20057;-79
2023/03/16 01:07:11;;;;;;;6.05;3.00;;;;;;;6.06;50.40;100115.38;5010042;28;20132;-79
2023/03/16 01:09:41;;;;;;;6.07;3.10;;;;;;;6.06;51.14;100120.59;5010572;28;20615;-79
2023/03/16 01:12:14;;;;;;;4.85;2.78;;;;;;;6.02;50.56;100126.78;5014174;28;20577;-79
2023/03/16 01:14:44;;;;;;;5.35;2.92;;;;;;;6.00;51.43;100142.53;5014174;28;20128;-79
2023/03/16 01:17:12;;;;;;;7.72;3.20;;;;;;;5.96;51.31;100135.72;5014145;28;20136;-79
2023/03/16 01:19:40;;;;;;;8.20;3.05;;;;;;;5.91;51.26;100134.13;5014513;28;20104;-78
2023/03/16 01:22:09;;;;;;;6.57;2.95;;;;;;;5.84;51.51;100134.31;4856146;22;20834;-81
2023/03/16 01:24:36;;;;;;;9.48;3.65;;;;;;;5.77;51.56;100117.13;5033411;28;20063;-80
2023/03/16 01:27:04;;;;;;;4.57;3.22;;;;;;;5.69;51.41;100109.53;5033317;28;20453;-80
2023/03/16 01:29:31;;;;;;;7.45;3.25;;;;;;;5.65;51.73;100112.28;5033798;28;20061;-81
2023/03/16 01:31:59;;;;;;;7.45;3.28;;;;;;;5.59;51.70;100114.19;5016766;28;20156;-81
2023/03/16 01:34:26;;;;;;;6.82;3.00;;;;;;;5.54;51.35;100105.66;5034178;28;20108;-80
2023/03/16 01:36:53;;;;;;;8.60;3.88;;;;;;;5.48;51.72;100093.63;5033375;28;20053;-80
2023/03/16 01:39:20;;;;;;;7.65;3.28;;;;;;;5.44;51.96;100088.53;5033893;28;20065;-80
2023/03/16 01:41:46;;;;;;;6.68;2.90;;;;;;;5.42;52.28;100083.34;5033978;28;20077;-80
2023/03/16 01:44:21;;;;;;;8.73;3.08;;;;;;;5.37;51.84;100074.81;5016020;28;20053;-81
2023/03/16 01:46:47;;;;;;;8.00;3.17;;;;;;;5.39;52.24;100072.16;5033231;28;20049;-81
2023/03/16 01:49:24;;;;;;;6.28;3.22;;;;;;;5.37;51.72;100079.16;5016265;28;20093;-81
2023/03/16 01:52:01;;;;;;;7.80;3.63;;;;;;;5.37;51.60;100064.38;5033840;28;20103;-81
2023/03/16 01:54:39;;;;;;;5.78;3.22;;;;;;;5.37;51.37;100058.28;5033639;28;20448;-81
2023/03/16 01:57:17;;;;;;;6.90;3.03;;;;;;;5.36;51.27;100057.44;5033198;28;20057;-81
2023/03/16 02:00:17;;;;;;;6.35;3.80;;;;;;;5.33;51.27;100057.53;5033444;28;20494;-81
2023/03/16 02:02:47;;;;;;;6.85;2.95;;;;;;;5.35;52.39;100060.97;5033534;28;20061;-81
2023/03/16 02:05:24;;;;;;;7.68;2.90;;;;;;;5.31;51.35;100061.97;5033313;28;20067;-81
2023/03/16 02:07:57;;;;;;;6.28;2.97;;;;;;;5.33;52.65;100057.53;5015426;28;20058;-81
2023/03/16 02:10:27;;;;;;;8.10;3.70;;;;;;;5.32;52.27;100053.22;5033382;28;20600;-81
2023/03/16 02:12:54;;;;;;;7.13;3.40;;;;;;;5.33;52.70;100044.47;5015898;28;20058;-80
2023/03/16 02:15:21;;;;;;;7.63;3.08;;;;;;;5.32;52.48;100043.66;5032765;28;20083;-81
2023/03/16 02:17:49;;;;;;;5.28;3.20;;;;;;;5.30;52.32;100037.59;5015194;28;20513;-81
2023/03/16 02:20:27;;;;;;;5.85;3.17;;;;;;;5.27;52.24;100029.84;5033259;28;20054;-81
2023/03/16 02:22:54;;;;;;;6.10;2.92;;;;;;;5.28;52.55;100033.34;5015242;28;20085;-81
2023/03/16 02:25:25;;;;;;;6.63;2.97;;;;;;;5.26;52.31;100027.28;5032573;28;20480;-81
2023/03/16 02:27:59;;;;;;;8.13;3.50;;;;;;;5.24;51.74;100026.50;5014923;28;20068;-81
2023/03/16 02:30:26;;;;;;;5.43;3.10;;;;;;;5.25;52.50;100025.59;5033288;28;20494;-81
2023/03/16 02:32:53;;;;;;;4.65;3.25;;;;;;;5.24;52.61;100022.16;5033113;28;20144;-81
2023/03/16 02:35:20;;;;;;;7.53;2.97;;;;;;;5.22;52.82;100032.63;5032719;28;20140;-81
2023/03/16 02:37:47;;;;;;;10.88;3.78;;;;;;;5.22;52.78;100029.16;5032499;28;20057;-82
2023/03/16 02:40:24;;;;;;;6.75;2.92;;;;;;;5.18;52.01;100023.19;5015220;28;20050;-81
2023/03/16 02:43:04;;;;;;;10.88;3.42;;;;;;;5.16;51.78;100008.47;5032946;28;20060;-81
2023/03/16 02:45:38;;;;;;;4.03;2.92;;;;;;;5.17;52.76;100015.38;5032442;28;20383;-81
2023/03/16 02:48:13;;;;;;;9.10;2.90;;;;;;;5.14;52.29;100018.94;5032374;28;20057;-81
2023/03/16 02:50:48;;;;;;;5.85;2.85;;;;;;;5.11;51.99;100026.00;5032608;28;20081;-81
2023/03/16 02:53:16;;;;;;;7.75;3.05;;;;;;;5.13;53.02;100019.00;5015060;28;20081;-81
2023/03/16 02:55:43;;;;;;;5.80;2.85;;;;;;;5.09;52.82;100011.25;5032299;28;20061;-80
2023/03/16 02:58:10;;;;;;;6.78;3.13;;;;;;;5.07;52.82;100010.47;5032087;28;20064;-81
2023/03/16 03:00:37;;;;;;;10.40;3.60;;;;;;;5.06;53.07;100015.72;5032432;28;20046;-81
2023/03/16 03:03:07;;;;;;;6.18;2.75;;;;;;;5.05;52.87;100016.63;5014725;28;20063;-81
2023/03/16 03:05:34;;;;;;;8.38;2.97;;;;;;;5.04;53.23;100013.16;5032093;28;20053;-81
2023/03/16 03:08:00;;;;;;;7.45;3.30;;;;;;;5.05;53.17;100020.06;5031591;28;20117;-81
2023/03/16 03:10:27;;;;;;;6.45;3.08;;;;;;;5.05;53.15;100014.84;5032382;28;20099;-81
2023/03/16 03:12:54;;;;;;;4.90;3.08;;;;;;;5.06;53.08;100011.38;5014607;28;20057;-81
2023/03/16 03:15:20;;;;;;;6.18;2.88;;;;;;;5.08;53.25;100016.50;5031753;28;20111;-81
2023/03/16 03:17:47;;;;;;;6.50;2.75;;;;;;;5.07;53.15;100015.69;5031617;28;20502;-81
2023/03/16 03:20:15;;;;;;;5.93;2.95;;;;;;;5.08;52.88;100017.38;5014552;28;20050;-81
2023/03/16 03:22:47;;;;;;;5.82;3.22;;;;;;;5.07;52.54;100017.41;5014281;28;20057;-82
2023/03/16 03:25:16;;;;;;;5.03;3.17;;;;;;;5.09;53.16;100013.84;5031602;28;20111;-81
2023/03/16 03:27:43;;;;;;;7.32;3.67;;;;;;;5.09;53.61;100016.47;5031465;28;20053;-80
2023/03/16 03:30:13;;;;;;;4.60;2.90;;;;;;;5.11;52.85;100018.16;5014264;28;20060;-81
2023/03/16 03:32:40;;;;;;;4.68;2.88;;;;;;;5.13;53.57;100013.78;5031388;28;20061;-81
2023/03/16 03:35:07;;;;;;;8.50;3.28;;;;;;;5.16;53.45;100006.69;5013559;28;20054;-81
2023/03/16 03:37:34;;;;;;;7.53;3.17;;;;;;;5.17;53.52;100003.22;5029228;28;20049;-81
2023/03/16 03:40:09;;;;;;;6.18;2.88;;;;;;;5.20;53.28;99999.66;5031462;28;20540;-81
2023/03/16 03:42:35;;;;;;;5.30;3.28;;;;;;;5.23;53.27;99994.31;5022158;28;20053;-81
2023/03/16 03:45:02;;;;;;;6.30;2.50;;;;;;;5.26;53.31;99989.00;5046976;28;20057;-81
2023/03/16 03:47:28;;;;;;;5.72;2.63;;;;;;;5.28;53.36;99992.44;5050886;28;20068;-82
2023/03/16 03:49:55;;;;;;;9.50;2.67;;;;;;;5.31;53.14;99988.88;5051534;28;20575;-81
2023/03/16 03:52:21;;;;;;;3.88;2.33;;;;;;;5.32;53.17;99990.56;5033669;28;20049;-81
2023/03/16 03:54:48;;;;;;;5.10;2.80;;;;;;;5.34;53.04;99991.38;5051066;28;20052;-81
2023/03/16 03:57:14;;;;;;;4.85;2.63;;;;;;;5.35;53.01;99991.31;5039546;28;20056;-81
2023/03/16 03:59:44;;;;;;;5.35;2.70;;;;;;;5.38;53.18;99992.16;5019782;28;20061;-81
2023/03/16 04:02:12;;;;;;;3.88;2.55;;;;;;;5.38;52.71;99992.97;5035452;28;20081;-81
2023/03/16 04:04:40;;;;;;;5.65;2.90;;;;;;;5.40;52.75;100000.75;5040821;28;20048;-81
2023/03/16 04:07:07;;;;;;;5.28;2.60;;;;;;;5.40;52.82;99988.59;5050496;28;20057;-81
2023/03/16 04:09:34;;;;;;;6.93;2.53;;;;;;;5.41;52.90;99992.03;5051019;28;20136;-81
2023/03/16 04:12:04;;;;;;;6.63;2.67;;;;;;;5.40;52.56;99990.31;5039614;28;20132;-81
2023/03/16 04:14:31;;;;;;;5.97;2.72;;;;;;;5.41;52.79;99981.59;5031196;28;20089;-82
2023/03/16 04:16:58;;;;;;;3.33;2.22;;;;;;;5.40;52.74;99985.97;5012536;28;20053;-81
2023/03/16 04:19:25;;;;;;;6.18;2.70;;;;;;;5.41;52.67;99981.59;5013414;28;20077;-81
2023/03/16 04:21:52;;;;;;;7.15;2.95;;;;;;;5.42;52.95;99981.53;5013080;28;20054;-81
2023/03/16 04:24:18;;;;;;;6.55;2.83;;;;;;;5.43;53.03;99977.19;5013206;28;20065;-82
2023/03/16 04:26:45;;;;;;;5.15;2.50;;;;;;;5.45;52.97;99972.75;5029787;28;20591;-81
2023/03/16 04:29:13;;;;;;;3.92;2.45;;;;;;;5.45;53.02;99962.31;5031063;28;20053;-81
2023/03/16 04:31:41;;;;;;;2.63;2.20;;;;;;;5.47;53.01;99957.91;5030924;28;20064;-82
2023/03/16 04:34:08;;;;;;;7.03;2.90;;;;;;;5.50;53.26;99959.56;5013557;28;20081;-81
2023/03/16 04:36:34;;;;;;;5.28;2.78;;;;;;;5.51;53.02;99949.06;5030015;28;20064;-81
2023/03/16 04:39:01;;;;;;;3.35;2.20;;;;;;;5.52;53.04;99950.78;5030517;28;20766;-81
2023/03/16 04:41:28;;;;;;;8.27;3.17;;;;;;;5.53;52.96;99955.06;5030542;28;20164;-81
2023/03/16 04:43:56;;;;;;;7.45;2.90;;;;;;;5.55;52.70;99958.50;5030711;28;20059;-82
2023/03/16 04:46:25;;;;;;;7.32;2.60;;;;;;;5.54;53.09;99956.81;5030296;28;20052;-81
2023/03/16 04:48:52;;;;;;;6.07;2.65;;;;;;;5.55;53.24;99948.06;5030289;28;20057;-81
2023/03/16 04:51:20;;;;;;;4.22;2.22;;;;;;;5.56;53.09;99957.59;5012976;28;20517;-81
2023/03/16 04:53:47;;;;;;;4.90;2.92;;;;;;;5.57;52.76;99948.03;5030528;28;20062;-81
2023/03/16 04:56:18;;;;;;;4.28;2.58;;;;;;;5.56;52.84;99949.75;5029882;28;20517;-81
2023/03/16 04:58:46;;;;;;;5.13;2.75;;;;;;;5.55;52.73;99937.63;5012797;28;20081;-81
2023/03/16 05:01:14;;;;;;;5.40;2.72;;;;;;;5.55;53.34;99944.59;5030427;28;20096;-81
2023/03/16 05:03:42;;;;;;;4.75;2.78;;;;;;;5.56;53.23;99954.13;5012821;28;20053;-81
2023/03/16 05:06:10;;;;;;;4.00;2.63;;;;;;;5.55;53.18;99948.06;5029772;28;20045;-81
2023/03/16 05:08:37;;;;;;;3.47;2.30;;;;;;;5.57;53.00;99946.25;5029849;28;20522;-81
2023/03/16 05:11:03;;;;;;;6.97;2.65;;;;;;;5.59;53.03;99949.66;5030270;28;20422;-80
2023/03/16 05:13:30;;;;;;;4.97;2.90;;;;;;;5.59;53.11;99940.97;5030464;28;20068;-80
2023/03/16 05:15:57;;;;;;;6.35;2.38;;;;;;;5.61;53.27;99936.56;5029937;28;20063;-80
2023/03/16 05:18:23;;;;;;;8.70;2.08;;;;;;;5.64;53.02;99933.00;5012327;28;20107;-81
2023/03/16 05:20:52;;;;;;;7.00;2.50;;;;;;;5.66;53.06;99920.72;5012545;28;20913;-80
2023/03/16 05:23:19;;;;;;;5.97;2.70;;;;;;;5.67;53.28;99925.91;5030133;28;20061;-80
2023/03/16 05:25:47;;;;;;;5.07;2.40;;;;;;;5.68;52.90;99929.38;5012097;28;20087;-81
2023/03/16 05:28:13;;;;;;;3.08;2.38;;;;;;;5.68;53.06;99924.16;5012311;28;20053;-80
2023/03/16 05:30:41;;;;;;;5.38;2.25;;;;;;;5.67;52.66;99933.75;5030132;28;20057;-81
2023/03/16 05:33:08;;;;;;;6.38;2.60;;;;;;;5.68;53.13;99921.53;5030449;28;20065;-81
2023/03/16 05:35:34;;;;;;;3.60;2.00;;;;;;;5.69;53.16;99920.63;5012022;28;20136;-80
2023/03/16 05:38:01;;;;;;;4.55;2.75;;;;;;;5.68;52.93;99927.59;5011839;28;20421;-81
2023/03/16 05:40:28;;;;;;;5.00;2.70;;;;;;;5.70;52.84;99930.16;5030367;28;20513;-81
2023/03/16 05:42:56;;;;;;;5.15;2.63;;;;;;;5.70;52.93;99919.72;5030119;28;20052;-80
2023/03/16 05:45:23;;;;;;;4.15;2.13;;;;;;;5.70;52.89;99919.72;5029682;28;20057;-80
2023/03/16 05:47:50;;;;;;;6.13;2.60;;;;;;;5.70;52.87;99910.13;5029449;28;20521;-81
2023/03/16 05:50:17;;;;;;;7.43;2.95;;;;;;;5.71;52.88;99909.22;5012468;28;20069;-81
2023/03/16 05:52:45;;;;;;;5.28;2.63;;;;;;;5.70;52.99;99909.28;5030128;28;20061;-81
2023/03/16 05:55:13;;;;;;;5.88;2.85;;;;;;;5.69;52.63;99920.63;5012068;28;20455;-80
2023/03/16 05:57:40;;;;;;;4.20;2.67;;;;;;;5.68;52.89;99922.38;5032073;28;20058;-81
2023/03/16 06:00:13;;;;;;;5.53;2.03;;;;;;;5.68;52.80;99925.00;5033624;28;20053;-80
2023/03/16 06:02:43;;;;;;;;;;;;;;;5.69;51.44;99920.63;5033898;28;20084;-81
2023/03/16 06:05:10;;;;;;;4.82;2.20;;;;;;;5.74;53.47;99918.72;5033210;28;19928;-80
2023/03/16 06:07:36;;;;;;;4.47;2.42;;;;;;;5.73;53.10;99914.41;5033090;28;20050;-80
2023/03/16 06:10:04;;;;;;;5.07;2.53;;;;;;;5.73;53.31;99917.00;5033438;28;20054;-80
2023/03/16 06:12:32;;;;;;;7.05;2.63;;;;;;;5.72;53.13;99913.53;5015742;28;20056;-80
2023/03/16 06:15:00;;;;;;;5.55;2.55;;;;;;;5.74;53.47;99900.44;5032900;28;20149;-80
2023/03/16 06:17:27;;;;;;;5.38;2.58;;;;;;;5.76;53.56;99909.06;5014996;28;20053;-80
2023/03/16 06:19:53;;;;;;;3.78;2.40;;;;;;;5.78;53.76;99902.03;5015741;28;20083;-81
2023/03/16 06:22:20;;;;;;;7.28;2.92;;;;;;;5.81;53.50;99903.69;5015650;28;20057;-81
2023/03/16 06:24:46;;;;;;;5.25;2.70;;;;;;;5.84;53.22;99901.81;5032393;28;20057;-80
2023/03/16 06:27:12;;;;;;;4.72;2.67;;;;;;;5.86;53.25;99910.44;5032359;28;20057;-80
2023/03/16 06:29:39;;;;;;;6.82;2.55;;;;;;;5.91;53.38;99919.88;5032521;28;20061;-81
2023/03/16 06:32:06;;;;;;;5.90;2.70;;;;;;;5.93;53.35;99918.06;5032785;28;20061;-80
2023/03/16 06:34:33;;;;;;;7.05;2.45;;;;;;;5.95;53.31;99913.66;5032535;28;20496;-80
2023/03/16 06:37:03;;;;;;;7.00;3.30;;;;;;;5.97;53.56;99912.69;5032013;28;20054;-81
2023/03/16 06:39:30;;;;;;;4.22;2.45;;;;;;;6.02;53.54;99914.28;5032671;28;20057;-80
2023/03/16 06:41:57;;;;;;;3.47;2.28;;;;;;;6.05;53.51;99925.50;5031235;28;20053;-80
2023/03/16 06:44:23;;;;;;;4.85;2.78;;;;;;;6.10;53.60;99922.75;5031323;28;20061;-80
2023/03/16 06:46:50;;;;;;;7.32;2.58;;;;;;;6.13;53.62;99923.47;5012679;28;20569;-81
2023/03/16 06:49:16;;;;;;;6.05;2.80;;;;;;;6.18;53.43;99922.47;5031130;28;20060;-80
2023/03/16 06:51:42;;;;;;;6.55;2.83;;;;;;;6.21;53.06;99919.75;5031945;28;20050;-80
2023/03/16 06:54:09;;;;;;;5.45;2.53;;;;;;;6.22;53.06;99927.53;5014698;28;20053;-81
2023/03/16 06:56:35;;;;;;;5.55;2.45;;;;;;;6.26;53.07;99933.50;5012383;28;20049;-80
2023/03/16 06:59:02;;;;;;;5.78;2.67;;;;;;;6.27;53.30;99932.56;5013452;28;20081;-80
2023/03/16 07:01:29;;;;;;;5.85;2.80;;;;;;;6.28;53.36;99923.81;5031043;28;20057;-80
2023/03/16 07:03:55;;;;;;;9.13;3.10;;;;;;;6.32;53.42;99933.25;5013502;28;20052;-80
2023/03/16 07:06:22;;;;;;;6.10;2.72;;;;;;;6.34;53.55;99930.59;5030774;28;20067;-80
2023/03/16 07:08:48;;;;;;;5.18;2.60;;;;;;;6.37;53.29;99941.81;5012046;28;20418;-80
2023/03/16 07:11:15;;;;;;;5.10;2.88;;;;;;;6.40;53.11;99930.38;5031305;28;20533;-80
2023/03/16 07:13:41;;;;;;;5.95;2.47;;;;;;;6.43;53.10;99937.25;5032288;28;20111;-80
2023/03/16 07:16:08;;;;;;;4.25;2.67;;;;;;;6.46;53.38;99934.50;5032021;28;20183;-80
2023/03/16 07:18:36;;;;;;;7.40;2.67;;;;;;;6.48;53.47;99940.53;5014096;28;20057;-80
2023/03/16 07:21:03;;;;;;;3.83;2.45;;;;;;;6.51;53.47;99929.97;5031901;28;20062;-80
2023/03/16 07:23:31;;;;;;;3.72;2.70;;;;;;;6.55;53.22;99928.09;5429491;23;20104;-79
2023/03/16 07:25:57;;;;;;;5.00;2.58;;;;;;;6.58;53.66;99922.75;5031466;28;20160;-77
2023/03/16 07:28:24;;;;;;;5.25;2.90;;;;;;;6.61;53.34;99923.47;5031576;28;20046;-79
2023/03/16 07:30:50;;;;;;;4.47;2.55;;;;;;;6.65;53.56;99925.06;5032140;28;20076;-77
2023/03/16 07:33:28;;;;;;;4.80;2.88;;;;;;;6.71;53.73;99917.91;5031762;28;20046;-79
2023/03/16 07:35:55;;;;;;;8.07;2.33;;;;;;;6.74;53.46;99928.25;5031432;28;20054;-79
2023/03/16 07:38:21;;;;;;;4.30;2.47;;;;;;;6.78;53.62;99914.97;5031340;28;20485;-79
2023/03/16 07:40:48;;;;;;;4.43;2.65;;;;;;;6.85;53.76;99923.47;5031541;28;20050;-79
2023/03/16 07:43:15;;;;;;;4.05;2.10;;;;;;;6.93;53.96;99930.16;5031751;28;20057;-79
2023/03/16 07:45:46;;;;;;;5.90;2.67;;;;;;;6.99;52.91;99927.31;5030600;28;20050;-79
2023/03/16 07:48:13;;;;;;;3.25;2.33;;;;;;;7.06;53.81;99933.97;5031370;28;20045;-80
2023/03/16 07:50:40;;;;;;;6.45;3.13;;;;;;;7.12;53.50;99933.75;5030767;28;20555;-79
2023/03/16 07:53:06;;;;;;;8.45;2.53;;;;;;;7.16;53.46;99937.97;5029955;28;20060;-79
2023/03/16 07:55:35;;;;;;;4.07;2.42;;;;;;;7.22;53.44;99936.00;5029980;28;20067;-79
2023/03/16 07:58:03;;;;;;;3.97;2.30;;;;;;;7.28;52.96;99948.84;5031452;28;20444;-79
2023/03/16 08:00:32;;;;;;;5.43;2.50;;;;;;;7.30;52.56;99939.16;5031454;28;20049;-79
2023/03/16 08:02:59;;;;;;;5.50;2.78;;;;;;;7.34;53.17;99948.59;5031680;28;20057;-79
2023/03/16 08:05:25;;;;;;;5.43;2.65;;;;;;;7.37;53.08;99943.22;5030819;28;20049;-79
2023/03/16 08:07:56;;;;;;;4.70;2.20;;;;;;;7.40;52.82;99937.03;5030696;28;20053;-79
2023/03/16 08:10:23;;;;;;;6.28;2.53;;;;;;;7.45;53.02;99948.16;5031466;28;20145;-79
2023/03/16 08:12:50;;;;;;;5.05;2.55;;;;;;;7.49;53.00;99946.25;5031628;28;20053;-79
2023/03/16 08:15:18;;;;;;;4.68;2.25;;;;;;;7.55;53.20;99946.88;5031128;28;20049;-79
2023/03/16 08:17:45;;;;;;;5.57;2.47;;;;;;;7.60;53.44;99948.44;5030787;28;20048;-79
2023/03/16 08:20:14;;;;;;;5.65;2.80;;;;;;;7.64;53.14;99945.63;5030711;28;20096;-79
2023/03/16 08:22:44;;;;;;;4.50;2.67;;;;;;;7.68;52.86;99947.22;5031110;28;20088;-79
2023/03/16 08:25:12;;;;;;;4.45;2.55;;;;;;;7.74;52.99;99958.34;5030676;28;20935;-79
2023/03/16 08:27:39;;;;;;;5.57;2.72;;;;;;;7.78;52.47;99952.91;5030764;28;20055;-79
2023/03/16 08:30:10;;;;;;;5.57;2.50;;;;;;;7.81;52.31;99957.16;5031016;28;20095;-79
2023/03/16 08:32:38;;;;;;;4.18;2.80;;;;;;;7.85;52.49;99957.91;5030957;28;20568;-77
2023/03/16 08:35:15;;;;;;;3.95;2.50;;;;;;;7.87;51.59;99962.16;5030812;28;20069;-79
2023/03/16 08:37:42;;;;;;;5.72;2.50;;;;;;;7.93;52.57;99963.66;5013107;28;20153;-79
2023/03/16 08:40:12;;;;;;;4.68;2.53;;;;;;;7.96;52.31;99955.66;5030698;28;20052;-79
2023/03/16 08:42:40;;;;;;;5.57;2.80;;;;;;;8.02;52.74;99958.03;5030903;28;20104;-79
2023/03/16 08:45:08;;;;;;;5.22;3.00;;;;;;;8.08;53.14;99949.06;5030135;28;20478;-79
2023/03/16 08:47:39;;;;;;;6.30;2.70;;;;;;;8.17;53.41;99948.66;5030731;28;20054;-79
2023/03/16 08:50:07;;;;;;;4.82;3.05;;;;;;;8.25;53.19;99955.31;5030482;28;20057;-79
2023/03/16 08:52:38;;;;;;;4.60;2.95;;;;;;;8.34;53.06;99953.13;5030691;28;20053;-80
2023/03/16 08:55:06;;;;;;;5.30;3.13;;;;;;;8.42;52.77;99954.56;5030214;28;20457;-79
2023/03/16 08:57:33;;;;;;;5.75;2.67;;;;;;;8.50;52.94;99951.59;5030085;28;20054;-79
2023/03/16 09:00:00;;;;;;;6.43;2.60;;;;;;;8.57;52.79;99951.25;5030731;28;20148;-79
2023/03/16 09:02:26;;;;;;;5.00;2.55;;;;;;;8.66;52.85;99946.53;5030697;28;20046;-79
2023/03/16 09:04:53;;;;;;;5.53;3.15;;;;;;;8.73;52.58;99943.56;5030228;28;20445;-79
2023/03/16 09:07:20;;;;;;;11.00;2.90;;;;;;;8.81;52.67;99956.31;5012412;28;20103;-79
2023/03/16 09:09:47;;;;;;;6.90;2.75;;;;;;;8.86;52.14;99949.06;5027687;28;20045;-80
2023/03/16 09:12:13;;;;;;;5.30;3.15;;;;;;;8.92;52.41;99950.56;5029470;28;20057;-80
2023/03/16 09:14:40;;;;;;;5.30;2.90;;;;;;;8.96;52.31;99946.88;5029584;28;20064;-79
2023/03/16 09:17:07;;;;;;;4.45;2.78;;;;;;;9.02;52.10;99940.50;5029738;28;20485;-80
2023/03/16 09:19:34;;;;;;;6.05;2.90;;;;;;;9.06;51.85;99938.56;5030339;28;20390;-79
2023/03/16 09:22:18;;;;;;;3.60;2.47;;;;;;;9.12;52.31;99935.63;5030349;28;20049;-80
2023/03/16 09:24:45;;;;;;;4.57;2.95;;;;;;;9.17;52.27;99932.78;5030333;28;20050;-79
2023/03/16 09:27:11;;;;;;;7.30;2.80;;;;;;;9.21;52.63;99929.97;5029742;28;20088;-80
2023/03/16 09:29:39;;;;;;;4.97;2.70;;;;;;;9.27;52.25;99927.94;5030156;28;20111;-79
2023/03/16 09:32:07;;;;;;;7.00;3.13;;;;;;;9.35;52.48;99931.06;5032127;28;20148;-79
2023/03/16 09:34:34;;;;;;;4.50;2.58;;;;;;;9.40;52.23;99923.78;5034127;28;20115;-79
2023/03/16 09:37:01;;;;;;;7.82;3.05;;;;;;;9.46;52.00;99928.72;5033278;28;20145;-80
2023/03/16 09:39:28;;;;;;;5.05;2.85;;;;;;;9.53;52.29;99924.00;5034213;28;20057;-80
2023/03/16 09:42:16;;;;;;;4.47;2.72;;;;;;;9.59;51.02;99930.75;5033930;28;20064;-80
2023/03/16 09:44:57;;;;;;;4.22;2.83;;;;;;;9.68;50.63;99929.44;5033947;28;20331;-79
2023/03/16 09:47:30;;;;;;;4.95;2.90;;;;;;;9.78;50.81;99935.94;5033399;28;20053;-79
2023/03/16 09:50:01;;;;;;;4.28;2.90;;;;;;;9.87;52.26;99937.25;5033976;28;20062;-80
2023/03/16 09:52:37;;;;;;;5.03;2.70;;;;;;;9.91;50.72;99933.53;5033930;28;20104;-80
2023/03/16 09:55:22;;;;;;;5.07;2.88;;;;;;;9.99;51.94;99933.13;5000256;28;20053;-79
2023/03/16 09:57:50;;;;;;;4.40;2.40;;;;;;;10.05;51.85;99932.81;5033259;28;20061;-79
2023/03/16 10:00:21;;;;;;;4.88;2.80;;;;;;;10.10;51.08;99925.50;5033553;28;20053;-79
2023/03/16 10:03:08;;;;;;;6.20;2.72;;;;;;;10.19;52.08;99926.81;5033503;28;20429;-79
2023/03/16 10:05:36;;;;;;;7.22;3.38;;;;;;;10.27;52.38;99927.28;5033228;28;20056;-80
2023/03/16 10:08:19;;;;;;;5.00;2.85;;;;;;;10.34;51.82;99932.19;5033270;28;20425;-79
2023/03/16 10:11:24;;;;;;;5.43;3.15;;;;;;;10.38;49.81;99928.47;5033745;28;20057;-79
2023/03/16 10:14:16;;;;;;;5.43;2.83;;;;;;;10.47;49.41;99935.91;5033449;28;20053;-79
2023/03/16 10:17:00;;;;;;;5.07;2.90;;;;;;;10.47;49.35;99935.91;5032510;28;20061;-79
2023/03/16 10:19:38;;;;;;;5.32;3.08;;;;;;;10.49;49.23;99938.44;5033525;28;20057;-79
2023/03/16 10:22:16;;;;;;;3.42;2.78;;;;;;;10.47;46.23;99943.78;5032331;28;20045;-79
2023/03/16 10:25:08;;;;;;;6.78;3.42;;;;;;;10.41;45.27;99942.34;5042921;28;20156;-79
2023/03/16 10:27:37;;;;;;;7.88;3.63;;;;;;;10.41;48.82;99938.84;5049872;28;20045;-79
2023/03/16 10:30:19;;;;;;;4.93;3.28;;;;;;;10.31;46.80;99941.09;5053074;28;20057;-79
2023/03/16 10:32:47;;;;;;;3.92;2.72;;;;;;;10.29;49.08;99930.66;5039478;28;20091;-79
2023/03/16 10:35:36;;;;;;;6.32;3.28;;;;;;;10.16;45.00;99934.88;5032493;28;20099;-79
2023/03/16 10:38:03;;;;;;;4.05;2.85;;;;;;;10.16;49.10;99926.97;5032561;28;20049;-79
2023/03/16 10:40:32;;;;;;;3.88;3.10;;;;;;;10.08;49.25;99908.97;5032870;28;20414;-79
2023/03/16 10:43:15;;;;;;;6.07;2.88;;;;;;;10.00;47.83;99922.53;5015227;28;20049;-79
2023/03/16 10:45:42;;;;;;;9.93;4.68;;;;;;;9.95;49.04;99919.31;5032623;28;20081;-80
2023/03/16 10:48:14;;;;;;;5.03;3.17;;;;;;;9.87;47.61;99919.69;5032143;28;20464;-79
2023/03/16 10:50:43;;;;;;;8.90;4.18;;;;;;;9.81;48.56;99924.41;5033153;28;20059;-80
2023/03/16 10:53:20;;;;;;;5.68;3.00;;;;;;;9.71;48.11;99906.47;5032774;28;20093;-79
2023/03/16 10:55:47;;;;;;;4.82;3.35;;;;;;;9.71;50.06;99916.13;5014711;28;20096;-79
2023/03/16 10:58:29;;;;;;;4.57;2.95;;;;;;;9.63;48.28;99916.53;5014439;28;20136;-79
2023/03/16 11:00:56;;;;;;;7.90;3.80;;;;;;;9.59;49.16;99936.88;5014395;28;20050;-80
2023/03/16 11:03:31;;;;;;;4.43;2.65;;;;;;;9.54;48.18;99927.50;5031918;28;20056;-80
2023/03/16 11:06:02;;;;;;;4.32;3.10;;;;;;;9.49;49.92;99923.31;5028402;28;20052;-79
2023/03/16 11:08:32;;;;;;;6.10;3.50;;;;;;;9.45;50.15;99926.16;5041857;28;20123;-79
2023/03/16 11:11:08;;;;;;;4.80;3.10;;;;;;;9.41;49.01;99924.66;5032096;28;20049;-80
2023/03/16 11:13:37;;;;;;;6.10;3.30;;;;;;;9.39;49.20;99935.22;5032557;28;20425;-79
2023/03/16 11:16:36;;;;;;;5.88;3.10;;;;;;;9.34;48.38;99917.06;5031641;28;20054;-79
2023/03/16 11:19:30;;;;;;;5.22;3.00;;;;;;;9.34;50.24;99924.06;5014396;28;20060;-79
2023/03/16 11:22:16;;;;;;;5.57;3.10;;;;;;;9.28;50.21;99909.50;5015183;28;20041;-79
2023/03/16 11:24:52;;;;;;;6.22;3.25;;;;;;;9.29;51.76;99910.31;5041259;28;20045;-79
2023/03/16 11:27:36;;;;;;;3.72;2.63;;;;;;;9.22;50.11;99899.25;5024249;28;20521;-79
2023/03/16 11:30:11;;;;;;;3.38;2.70;;;;;;;9.25;51.42;99892.09;5032075;28;20045;-79
2023/03/16 11:32:40;;;;;;;8.95;3.35;;;;;;;9.28;52.13;99892.88;5032035;28;20053;-79
2023/03/16 11:35:15;;;;;;;5.47;2.88;;;;;;;9.30;52.23;99888.41;5013712;28;20542;-79
2023/03/16 11:38:09;;;;;;;4.07;3.28;;;;;;;9.34;51.75;99887.28;5031490;28;20053;-79
2023/03/16 11:40:46;;;;;;;4.97;2.65;;;;;;;9.45;52.12;99873.63;5031869;28;20049;-79
2023/03/16 11:43:15;;;;;;;4.40;2.92;;;;;;;9.54;53.51;99867.06;5031818;28;20100;-79
2023/03/16 11:46:21;;;;;;;3.80;2.58;;;;;;;9.62;50.89;99878.03;5031156;28;20059;-79
2023/03/16 11:49:13;;;;;;;3.67;2.90;;;;;;;9.74;51.75;99859.00;5031338;28;20498;-79
2023/03/16 11:51:51;;;;;;;2.72;2.17;;;;;;;9.90;54.17;99840.66;5031414;28;20045;-79